Greenville Farm
1800 N 800 E, North Logan
Last Weather Update:10/30/2011 11:00:00 PM
Date
ETo
ETc
Rain
Irrigation
Req
Temp
Max
Temp
Min
Temp
Avg
Avg RH
Avg Wind
Avg Solar
inches
inches
incehs
inches
F
F
F
%
%
watts/m2
9/1/2011 0.19" 0.13" 0.00" 0.13" 81.1° 49.8° 63.9° 39.9% 3.3 MPH 23.3w/m2
9/2/2011 0.17" 0.12" 0.00" 0.12" 77.8° 44.7° 60.6° 42.1% 2.8 MPH 23.8w/m2
9/3/2011 0.18" 0.12" 0.00" 0.12" 81.6° 44.4° 61.6° 40.8% 2.7 MPH 23.8w/m2
9/4/2011 0.18" 0.12" 0.00" 0.12" 85.7° 44.8° 63.4° 40.8% 2.6 MPH 23.9w/m2
9/5/2011 0.11" 0.08" 0.00" 0.08" 75.9° 49.0° 62.6° 47.8% 3.6 MPH 10.1w/m2
9/6/2011 0.19" 0.13" 0.02" 0.11" 79.2° 58.5° 67.3° 51.7% 4.9 MPH 20.3w/m2
9/7/2011 0.20" 0.14" 0.00" 0.14" 81.1° 50.6° 66.9° 45.3% 5.1 MPH 22.2w/m2
9/8/2011 0.20" 0.13" 0.00" 0.13" 80.3° 53.0° 68.8° 38.5% 4.5 MPH 22.4w/m2
9/9/2011 0.22" 0.14" 0.00" 0.14" 84.2° 53.7° 69.6° 34.9% 4.7 MPH 22.6w/m2
9/10/2011 0.21" 0.14" 0.00" 0.14" 82.0° 56.9° 70.5° 29.4% 5.8 MPH 18.7w/m2
9/11/2011 0.16" 0.11" 0.00" 0.11" 77.7° 51.2° 64.4° 50.1% 3.2 MPH 19.8w/m2
9/12/2011 0.16" 0.11" 0.00" 0.11" 77.7° 52.4° 64.0° 52.2% 3.2 MPH 20.0w/m2
9/13/2011 0.15" 0.10" 0.00" 0.10" 79.4° 46.9° 61.7° 56.5% 2.7 MPH 21.3w/m2
9/14/2011 0.16" 0.10" 0.00" 0.10" 79.6° 49.0° 63.3° 52.4% 3.4 MPH 19.6w/m2
9/15/2011 0.15" 0.10" 0.00" 0.10" 76.9° 48.1° 62.3° 56.7% 3.0 MPH 20.6w/m2
9/16/2011 0.10" 0.06" 0.16" -0.07" 70.8° 49.6° 58.7° 63.6% 3.9 MPH 12.5w/m2
9/17/2011 0.09" 0.06" 0.28" -0.17" 64.4° 49.3° 54.8° 75.4% 3.3 MPH 12.6w/m2
9/18/2011 0.14" 0.09" 0.00" 0.09" 72.1° 42.7° 56.5° 64.3% 2.3 MPH 20.5w/m2
9/19/2011 0.15" 0.10" 0.00" 0.10" 76.8° 44.6° 59.6° 55.6% 3.0 MPH 20.4w/m2
9/20/2011 0.14" 0.09" 0.00" 0.09" 75.4° 45.7° 59.5° 51.5% 2.8 MPH 20.1w/m2
9/21/2011 0.14" 0.09" 0.00" 0.09" 76.9° 42.9° 58.5° 56.2% 2.4 MPH 20.1w/m2
9/22/2011 0.14" 0.09" 0.00" 0.09" 79.5° 44.1° 59.7° 55.9% 2.5 MPH 20.0w/m2
9/23/2011 0.14" 0.09" 0.00" 0.09" 81.7° 44.4° 61.4° 50.5% 2.5 MPH 20.0w/m2
9/24/2011 0.14" 0.08" 0.00" 0.08" 81.6° 44.4° 61.0° 50.3% 2.1 MPH 19.5w/m2
9/25/2011 0.14" 0.09" 0.00" 0.09" 82.7° 44.1° 61.4° 48.5% 2.7 MPH 19.4w/m2
9/26/2011 0.15" 0.09" 0.00" 0.09" 79.5° 54.2° 64.7° 40.6% 3.2 MPH 18.4w/m2
9/27/2011 0.13" 0.08" 0.00" 0.08" 81.1° 45.3° 61.6° 51.0% 2.5 MPH 18.8w/m2
9/28/2011 0.14" 0.08" 0.00" 0.08" 82.5° 45.9° 62.7° 50.0% 2.5 MPH 18.7w/m2
9/29/2011 0.13" 0.08" 0.00" 0.08" 82.2° 45.9° 62.1° 50.6% 2.5 MPH 18.4w/m2
9/30/2011 0.13" 0.08" 0.00" 0.08" 84.8° 46.4° 63.6° 49.3% 2.4 MPH 18.0w/m2
Totals: 4.61" 3.01" 0.46" 2.64" 85.7° 42.7° 62.6° 49.7% 3.2 MPH 19.7w/m2